Time;durP1;ratioP1;P1;durP2;ratioP2;P2;SDS_P1;SDS_P2;PMS_P1;PMS_P2;Temp;Humidity;BMP_temperature;BMP_pressure;BME280_temperature;BME280_humidity;BME280_pressure;Samples;Min_cycle;Max_cycle;Signal;HPM_P1;HPM_P2
2022/10/25 00:01:55;;;;;;;1.47;1.37;;;14.60;99.90;15.70;101008.00;;;;5014917;28;20183;-73
2022/10/25 00:05:01;;;;;;;1.10;1.07;;;14.70;99.90;15.70;100992.00;;;;5015699;28;20197;-72
2022/10/25 00:08:08;;;;;;;0.60;0.60;;;14.60;99.90;15.70;100997.00;;;;5014675;28;20188;-72
2022/10/25 00:11:21;;;;;;;0.50;0.50;;;14.70;99.90;16.00;101011.00;;;;5014766;28;20173;-72
2022/10/25 00:14:49;;;;;;;0.80;0.80;;;14.90;99.90;16.10;100994.00;;;;5014180;28;20178;-72
2022/10/25 00:17:52;;;;;;;0.60;0.60;;;15.00;99.90;15.60;100995.00;;;;5030965;28;20188;-72
2022/10/25 00:21:18;;;;;;;0.50;0.50;;;14.70;99.90;16.00;100998.00;;;;5014129;28;20321;-72
2022/10/25 00:24:24;;;;;;;0.60;0.60;;;14.80;99.90;16.10;101000.00;;;;5014389;28;20628;-73
2022/10/25 00:27:33;;;;;;;0.60;0.60;;;15.00;99.90;15.30;101006.00;;;;5014593;28;20200;-72
2022/10/25 00:30:52;;;;;;;0.60;0.60;;;14.80;99.90;15.90;100961.00;;;;5029535;28;20248;-72
2022/10/25 00:34:17;;;;;;;0.60;0.60;;;14.80;99.90;16.00;100999.00;;;;5026972;28;20243;-72
2022/10/25 00:37:20;;;;;;;0.60;0.60;;;14.90;99.90;16.00;100990.00;;;;5021413;28;20190;-72
2022/10/25 00:40:44;;;;;;;0.70;0.70;;;14.90;99.90;16.30;101004.00;;;;5050752;28;20244;-72
2022/10/25 00:43:51;;;;;;;0.70;0.70;;;15.10;99.90;15.90;100968.00;;;;5033642;28;20636;-72
2022/10/25 00:49:45;;;;;;;0.60;0.60;;;14.90;99.90;16.10;101011.00;;;;5034594;28;20193;-72
2022/10/25 00:53:11;;;;;;;0.80;0.80;;;15.00;99.90;15.80;101017.00;;;;5033638;28;20267;-72
2022/10/25 00:56:27;;;;;;;0.83;0.83;;;15.10;99.90;15.30;101024.00;;;;5033645;28;20184;-72
2022/10/25 00:59:39;;;;;;;0.60;0.60;;;14.90;99.90;16.20;101006.00;;;;5016725;28;20191;-72
2022/10/25 01:02:34;;;;;;;0.50;0.50;;;15.10;99.90;15.70;101012.00;;;;5032776;28;20720;-71
2022/10/25 01:05:41;;;;;;;0.60;0.60;;;14.90;99.90;15.70;101027.00;;;;5017254;28;20286;-72
2022/10/25 01:08:47;;;;;;;0.50;0.50;;;15.00;99.90;15.60;101024.00;;;;5017128;28;20186;-71
2022/10/25 01:11:53;;;;;;;3.43;0.90;;;14.90;99.90;15.60;101043.00;;;;5032609;28;20179;-71
2022/10/25 01:14:55;;;;;;;0.60;0.60;;;14.90;99.90;15.90;101044.00;;;;5034136;28;20271;-71
2022/10/25 01:25:14;;;;;;;2.10;1.90;;;15.10;99.90;16.00;101060.00;;;;4925102;29;20198;-72
2022/10/25 01:27:57;;;;;;;0.50;0.50;;;14.80;99.90;15.70;101051.00;;;;4915709;29;20709;-72
2022/10/25 01:31:04;;;;;;;0.53;0.53;;;14.90;99.90;16.20;101044.00;;;;4915370;29;20254;-72
2022/10/25 01:33:58;;;;;;;0.60;0.60;;;14.90;99.90;15.50;101064.00;;;;4915692;29;20223;-71
2022/10/25 01:36:51;;;;;;;4.10;1.17;;;14.80;99.90;15.80;101008.00;;;;4915565;29;20627;-72
2022/10/25 01:39:43;;;;;;;0.70;0.70;;;14.80;99.90;15.40;101066.00;;;;4915523;29;20197;-72
2022/10/25 01:42:29;;;;;;;0.57;0.57;;;14.70;99.90;16.00;101015.00;;;;4915149;29;20196;-72
2022/10/25 01:45:57;;;;;;;0.40;0.40;;;14.80;99.90;15.80;101049.00;;;;4915571;29;20188;-72
2022/10/25 01:49:38;;;;;;;0.60;0.60;;;14.80;99.90;16.20;101062.00;;;;4976489;28;20652;-72
2022/10/25 01:52:32;;;;;;;0.60;0.60;;;14.80;99.90;15.90;101018.00;;;;4895687;29;20218;-72
2022/10/25 01:55:39;;;;;;;0.60;0.60;;;15.00;99.90;15.80;101053.00;;;;4949412;28;20252;-72
2022/10/25 01:58:48;;;;;;;0.60;0.60;;;14.90;99.90;16.00;101061.00;;;;4956781;28;20178;-72
2022/10/25 02:01:38;;;;;;;0.60;0.60;;;14.90;99.90;15.30;101067.00;;;;4972607;28;20197;-72
2022/10/25 02:04:41;;;;;;;0.53;0.53;;;14.70;99.90;15.90;101020.00;;;;5023853;28;20234;-72
2022/10/25 02:08:03;;;;;;;0.70;0.70;;;14.80;99.90;15.90;101052.00;;;;5032023;28;20613;-72
2022/10/25 02:10:58;;;;;;;0.60;0.60;;;14.80;99.90;15.60;101060.00;;;;5021585;28;20214;-72
2022/10/25 02:14:07;;;;;;;0.50;0.50;;;14.80;99.90;16.00;101012.00;;;;5026972;28;20261;-72
2022/10/25 02:17:06;;;;;;;0.50;0.50;;;14.70;99.90;15.60;101052.00;;;;5023676;28;20198;-72
2022/10/25 02:20:01;;;;;;;0.50;0.50;;;14.70;99.90;15.60;101066.00;;;;5033431;28;20668;-72
2022/10/25 02:23:08;;;;;;;0.60;0.60;;;14.70;99.90;15.40;101007.00;;;;5032113;28;20279;-72
2022/10/25 02:26:13;;;;;;;0.57;0.57;;;14.80;99.90;15.90;101063.00;;;;5015773;28;20581;-72
2022/10/25 02:29:07;;;;;;;0.77;0.77;;;14.80;99.90;15.90;101013.00;;;;5032149;28;20182;-72
2022/10/25 02:32:13;;;;;;;0.50;0.50;;;14.70;99.90;15.50;101064.00;;;;5015561;28;20219;-72
2022/10/25 02:35:22;;;;;;;0.60;0.60;;;14.70;99.90;15.40;101017.00;;;;5047763;28;20195;-72
2022/10/25 02:38:30;;;;;;;0.50;0.50;;;14.70;99.90;14.90;101079.00;;;;5015715;28;20201;-72
2022/10/25 02:41:28;;;;;;;0.50;0.50;;;14.50;99.90;15.40;101072.00;;;;5016430;28;20189;-72
2022/10/25 02:44:20;;;;;;;0.40;0.40;;;14.40;99.90;15.40;101077.00;;;;5032158;28;20187;-72
2022/10/25 02:47:23;;;;;;;0.50;0.50;;;14.40;99.90;15.30;101035.00;;;;5015475;28;20183;-72
2022/10/25 02:49:57;;;;;;;0.50;0.50;;;14.50;99.90;14.90;101082.00;;;;5032984;28;20195;-72
2022/10/25 02:52:43;;;;;;;0.40;0.40;;;14.30;99.90;15.70;101091.00;;;;5048215;28;20291;-72
2022/10/25 02:55:50;;;;;;;0.57;0.57;;;14.40;99.90;15.10;101035.00;;;;5031616;28;20173;-72
2022/10/25 02:58:43;;;;;;;0.60;0.60;;;14.40;99.90;15.30;101010.00;;;;5031318;28;20283;-73
2022/10/25 03:01:49;;;;;;;0.47;0.47;;;14.40;99.90;15.30;101083.00;;;;5031412;28;20171;-72
2022/10/25 03:04:50;;;;;;;0.50;0.50;;;14.30;99.90;15.60;101089.00;;;;5031235;28;20545;-72
2022/10/25 03:07:54;;;;;;;0.50;0.50;;;14.40;99.90;15.60;101096.00;;;;5031419;28;20203;-72
2022/10/25 03:11:05;;;;;;;0.77;0.77;;;14.60;99.90;15.10;101096.00;;;;5031575;28;20510;-72
2022/10/25 03:14:06;;;;;;;0.50;0.50;;;14.40;99.90;15.00;101099.00;;;;5031626;28;20506;-71
2022/10/25 03:16:54;;;;;;;0.43;0.43;;;14.30;99.90;15.20;101102.00;;;;5015056;28;20222;-72
2022/10/25 03:19:43;;;;;;;0.47;0.47;;;14.30;99.90;14.90;101113.00;;;;5033866;28;20188;-71
2022/10/25 03:22:17;;;;;;;0.63;0.63;;;14.20;99.90;14.70;101122.00;;;;5020719;28;20187;-71
2022/10/25 03:25:07;;;;;;;0.40;0.40;;;14.10;99.90;15.30;101123.00;;;;5035385;28;20211;-72
2022/10/25 03:27:55;;;;;;;1.10;0.67;;;14.20;99.90;14.70;101130.00;;;;5004186;28;20174;-72
2022/10/25 03:30:46;;;;;;;0.40;0.40;;;14.10;99.90;15.10;101113.00;;;;5035284;28;20202;-72
2022/10/25 03:33:33;;;;;;;0.40;0.40;;;14.00;99.90;15.30;101116.00;;;;5034530;28;20219;-72
2022/10/25 03:36:23;;;;;;;0.40;0.40;;;14.10;99.90;14.60;101073.00;;;;5035567;28;20240;-72
2022/10/25 03:39:11;;;;;;;0.43;0.43;;;14.00;99.90;15.00;101122.00;;;;4993343;28;20239;-71
2022/10/25 03:41:58;;;;;;;0.40;0.40;;;14.10;99.90;15.30;101115.00;;;;4978555;28;20196;-72
2022/10/25 03:44:44;;;;;;;0.60;0.60;;;14.20;99.90;15.00;101118.00;;;;4978665;28;20679;-72
2022/10/25 03:47:29;;;;;;;0.50;0.50;;;14.20;99.90;15.00;101076.00;;;;4978074;28;20291;-72
2022/10/25 03:50:10;;;;;;;0.40;0.40;;;14.10;99.90;15.00;101124.00;;;;4978195;28;20195;-72
2022/10/25 03:53:02;;;;;;;0.50;0.50;;;14.10;99.90;14.90;101129.00;;;;4993929;28;20198;-72
2022/10/25 03:55:47;;;;;;;0.50;0.50;;;14.20;99.90;14.40;101129.00;;;;4976000;28;20286;-72
2022/10/25 03:58:37;;;;;;;0.40;0.40;;;13.90;99.90;14.60;101129.00;;;;4977534;28;20651;-71
2022/10/25 04:01:14;;;;;;;0.50;0.50;;;13.90;99.90;14.60;101127.00;;;;4976811;28;20197;-72
2022/10/25 04:03:40;;;;;;;0.50;0.50;;;13.90;99.90;14.90;101138.00;;;;5022255;28;20198;-71
2022/10/25 04:06:06;;;;;;;0.40;0.40;;;14.00;99.90;15.20;101146.00;;;;5034116;28;20186;-72
2022/10/25 04:08:32;;;;;;;0.60;0.60;;;14.00;99.90;15.20;101141.00;;;;5035708;28;20514;-71
2022/10/25 04:10:58;;;;;;;0.50;0.50;;;14.10;99.90;14.90;101137.00;;;;5035680;28;20180;-72
2022/10/25 04:13:27;;;;;;;0.40;0.40;;;14.00;99.90;14.80;101145.00;;;;5034653;28;20249;-72
2022/10/25 04:15:53;;;;;;;0.50;0.50;;;13.90;99.90;15.20;101153.00;;;;5051300;28;20545;-72
2022/10/25 04:18:19;;;;;;;0.50;0.50;;;14.00;99.90;15.00;101149.00;;;;5035340;28;20271;-72
2022/10/25 04:20:45;;;;;;;0.50;0.50;;;14.00;99.90;14.90;101142.00;;;;5033953;28;20184;-72
2022/10/25 04:23:10;;;;;;;14.73;1.00;;;14.00;99.90;14.70;101111.00;;;;5034068;28;20187;-72
2022/10/25 04:25:36;;;;;;;0.50;0.50;;;14.00;99.90;14.70;101156.00;;;;5033880;28;20213;-73
2022/10/25 04:28:03;;;;;;;0.50;0.50;;;13.90;99.90;14.80;101136.00;;;;5017282;28;20224;-72
2022/10/25 04:30:29;;;;;;;0.50;0.50;;;14.00;99.90;14.70;101152.00;;;;5035284;28;20179;-72
2022/10/25 04:32:59;;;;;;;1.07;1.07;;;14.00;99.90;14.70;101152.00;;;;5033748;28;20295;-72
2022/10/25 04:35:27;;;;;;;0.50;0.50;;;14.00;99.90;15.10;101159.00;;;;5033304;28;20190;-72
2022/10/25 04:37:56;;;;;;;0.50;0.50;;;14.00;99.90;15.10;101175.00;;;;5035105;28;20266;-72
2022/10/25 04:40:25;;;;;;;0.50;0.50;;;14.10;99.90;15.30;101159.00;;;;5016764;28;20555;-72
2022/10/25 04:42:54;;;;;;;0.53;0.53;;;14.10;99.90;15.50;101149.00;;;;5034088;28;20209;-72
2022/10/25 04:45:22;;;;;;;0.50;0.50;;;14.30;99.90;15.60;101160.00;;;;5033837;28;20192;-73
2022/10/25 04:47:48;;;;;;;0.53;0.53;;;14.40;99.90;15.00;101165.00;;;;5033872;28;20182;-73
2022/10/25 04:50:14;;;;;;;0.50;0.50;;;14.30;99.90;15.30;101175.00;;;;5034801;28;20172;-72
2022/10/25 04:52:45;;;;;;;0.80;0.80;;;14.30;99.90;15.10;101167.00;;;;5050019;28;20592;-72
2022/10/25 04:55:14;;;;;;;0.33;0.33;;;14.20;99.90;15.00;101169.00;;;;5035136;28;20649;-71
2022/10/25 04:57:40;;;;;;;0.50;0.50;;;14.10;99.90;15.20;101183.00;;;;5033600;28;20229;-71
2022/10/25 05:00:10;;;;;;;0.50;0.50;;;14.10;99.90;15.30;101131.00;;;;5034309;28;20182;-72
2022/10/25 05:02:38;;;;;;;0.70;0.70;;;14.20;99.90;14.30;101173.00;;;;5033502;28;20202;-71
2022/10/25 05:05:05;;;;;;;0.90;0.67;;;13.90;99.90;14.30;101154.00;;;;5034020;28;20192;-71
2022/10/25 05:07:31;;;;;;;0.37;0.37;;;13.80;99.90;14.50;101192.00;;;;5049683;28;20711;-71
2022/10/25 05:09:57;;;;;;;0.40;0.40;;;13.80;99.90;14.30;101181.00;;;;5016770;28;20179;-71
2022/10/25 05:12:23;;;;;;;1.77;1.77;;;13.70;99.90;14.90;101202.00;;;;5016549;28;20269;-72
2022/10/25 05:14:49;;;;;;;0.40;0.40;;;13.90;99.90;15.20;101201.00;;;;5034096;28;20175;-72
2022/10/25 05:17:15;;;;;;;0.63;0.63;;;14.00;99.90;14.40;101204.00;;;;5033103;28;20176;-72
2022/10/25 05:19:40;;;;;;;0.50;0.50;;;14.00;99.90;15.00;101205.00;;;;5033799;28;20181;-71
2022/10/25 05:22:06;;;;;;;0.40;0.40;;;14.00;99.90;15.70;101206.00;;;;5032879;28;20190;-72
2022/10/25 05:24:32;;;;;;;0.40;0.40;;;14.30;99.90;14.70;101201.00;;;;5034083;28;20225;-71
2022/10/25 05:26:58;;;;;;;0.87;0.87;;;14.20;99.90;15.10;101207.00;;;;5034242;28;20175;-71
2022/10/25 05:29:24;;;;;;;0.40;0.40;;;14.20;99.90;15.40;101218.00;;;;5016322;28;20272;-71
2022/10/25 05:32:19;;;;;;;0.40;0.40;;;14.30;99.90;14.60;101184.00;;;;5032438;28;20218;-72
2022/10/25 05:35:13;;;;;;;0.40;0.40;;;14.10;99.90;15.00;101213.00;;;;5033346;28;20194;-71
2022/10/25 05:38:04;;;;;;;0.50;0.50;;;14.10;99.90;14.80;101223.00;;;;5032642;28;20198;-72
2022/10/25 05:40:30;;;;;;;0.40;0.40;;;14.00;99.90;15.10;101185.00;;;;5032608;28;20171;-73
2022/10/25 05:43:33;;;;;;;0.40;0.40;;;14.10;99.90;15.50;101164.00;;;;5032240;28;20184;-72
2022/10/25 05:46:15;;;;;;;0.40;0.40;;;14.20;99.90;15.00;101226.00;;;;5032323;28;20171;-72
2022/10/25 05:49:19;;;;;;;0.40;0.40;;;14.10;99.90;15.30;101166.00;;;;5032061;28;20192;-72
2022/10/25 05:52:40;;;;;;;0.47;0.47;;;14.10;99.90;14.70;101202.00;;;;5032572;28;20722;-72
2022/10/25 05:55:43;;;;;;;0.50;0.50;;;14.00;99.90;14.80;101195.00;;;;5032419;28;20184;-72
2022/10/25 05:58:52;;;;;;;0.50;0.50;;;14.00;99.90;14.50;101218.00;;;;5032605;28;20231;-72
2022/10/25 06:02:21;;;;;;;0.40;0.40;;;13.90;99.90;15.10;101218.00;;;;5031823;28;20196;-72
2022/10/25 06:05:42;;;;;;;0.40;0.40;;;14.00;99.90;14.80;101222.00;;;;5033158;28;20283;-72
2022/10/25 06:08:54;;;;;;;0.43;0.43;;;13.90;99.90;14.20;101221.00;;;;5032344;28;20241;-72
2022/10/25 06:12:02;;;;;;;0.83;0.83;;;13.70;99.90;14.70;101205.00;;;;5032033;28;20191;-72
2022/10/25 06:15:07;;;;;;;0.60;0.60;;;13.70;99.90;14.90;101225.00;;;;5032314;28;20173;-71
2022/10/25 06:18:15;;;;;;;7.10;1.47;;;13.80;99.90;14.40;101241.00;;;;5031798;28;20181;-72
2022/10/25 06:21:25;;;;;;;1.30;1.27;;;13.70;99.90;14.40;101250.00;;;;5033271;28;20178;-72
2022/10/25 06:24:43;;;;;;;0.80;0.80;;;13.70;99.90;14.40;101244.00;;;;5031881;28;20255;-72
2022/10/25 06:28:02;;;;;;;0.50;0.50;;;13.70;99.90;14.90;101253.00;;;;5031937;28;20228;-72
2022/10/25 06:31:21;;;;;;;0.60;0.60;;;13.80;99.90;14.60;101257.00;;;;5032763;28;20190;-71
2022/10/25 06:34:39;;;;;;;0.50;0.50;;;13.80;99.90;14.90;101204.00;;;;5031555;28;20212;-71
2022/10/25 06:37:50;;;;;;;0.50;0.50;;;13.90;99.90;14.70;101255.00;;;;5031382;28;20183;-71
2022/10/25 06:41:10;;;;;;;0.60;0.60;;;13.90;99.90;14.90;101256.00;;;;5020291;28;20180;-72
2022/10/25 06:44:47;;;;;;;0.50;0.50;;;14.00;99.90;15.70;101221.00;;;;5015413;28;20669;-71
2022/10/25 06:47:48;;;;;;;0.57;0.57;;;14.20;99.90;15.20;101258.00;;;;5031857;28;20176;-72
2022/10/25 06:51:01;;;;;;;0.50;0.50;;;14.30;99.90;14.80;101266.00;;;;5015147;28;20349;-71
2022/10/25 06:54:06;;;;;;;0.80;0.80;;;14.10;99.90;14.90;101261.00;;;;5033548;28;20216;-72
2022/10/25 06:57:18;;;;;;;0.50;0.50;;;14.10;99.90;15.00;101268.00;;;;5036917;28;20184;-71
2022/10/25 07:00:09;;;;;;;0.50;0.50;;;14.10;99.90;15.00;101262.00;;;;5035982;28;20619;-71
2022/10/25 07:02:37;;;;;;;0.50;0.50;;;14.10;99.90;14.90;101271.00;;;;5018866;28;20200;-71
2022/10/25 07:05:11;;;;;;;0.50;0.50;;;14.20;99.90;14.50;101245.00;;;;5036688;28;20203;-71
2022/10/25 07:07:53;;;;;;;0.40;0.40;;;14.00;99.90;14.40;101272.00;;;;5052463;28;20187;-71
2022/10/25 07:10:24;;;;;;;0.40;0.40;;;14.00;99.90;14.70;101275.00;;;;5036952;28;20222;-71
2022/10/25 07:12:55;;;;;;;0.50;0.50;;;14.00;99.90;14.70;101295.00;;;;5036805;28;20211;-72
2022/10/25 07:15:24;;;;;;;0.70;0.70;;;13.90;99.90;14.90;101276.00;;;;5036798;28;20167;-72
2022/10/25 07:18:07;;;;;;;0.30;0.30;;;14.00;99.90;14.60;101301.00;;;;5035149;28;20654;-72
2022/10/25 07:21:13;;;;;;;0.40;0.40;;;14.00;99.90;14.60;101300.00;;;;5035590;28;20574;-72
2022/10/25 07:24:21;;;;;;;0.30;0.30;;;14.00;99.90;14.60;101248.00;;;;5021969;28;20323;-72
2022/10/25 07:27:05;;;;;;;0.40;0.40;;;14.00;99.90;14.80;101291.00;;;;5018743;28;20326;-72
2022/10/25 07:30:26;;;;;;;0.40;0.40;;;14.10;99.90;14.70;101298.00;;;;5035238;28;20272;-72
2022/10/25 07:33:21;;;;;;;17.20;3.13;;;14.10;99.90;15.00;101297.00;;;;5034291;28;20246;-72
2022/10/25 07:36:28;;;;;;;0.63;0.63;;;14.20;99.90;14.70;101307.00;;;;5034596;28;20258;-72
2022/10/25 07:39:32;;;;;;;0.33;0.33;;;14.10;99.90;15.20;101295.00;;;;5034826;28;20229;-72
2022/10/25 07:42:20;;;;;;;0.30;0.30;;;14.20;99.90;14.70;101304.00;;;;5031149;28;20286;-72
2022/10/25 07:45:11;;;;;;;0.87;0.87;;;14.20;99.90;14.60;101312.00;;;;5029231;28;20647;-72
2022/10/25 07:47:58;;;;;;;0.30;0.30;;;14.00;99.90;14.50;101305.00;;;;5034661;28;20179;-72
2022/10/25 07:50:29;;;;;;;0.40;0.40;;;13.90;99.90;14.60;101263.00;;;;5018789;28;20180;-72
2022/10/25 07:52:58;;;;;;;0.40;0.40;;;14.00;99.90;14.50;101303.00;;;;5034971;28;20642;-72
2022/10/25 07:55:27;;;;;;;0.30;0.30;;;14.00;99.90;14.70;101313.00;;;;5034721;28;20640;-72
2022/10/25 07:58:06;;;;;;;0.30;0.30;;;14.00;99.90;14.90;101314.00;;;;5017805;28;20183;-72
2022/10/25 08:00:34;;;;;;;0.40;0.40;;;14.00;99.90;15.20;101312.00;;;;5051001;28;20230;-66
2022/10/25 08:03:06;;;;;;;0.37;0.37;;;14.30;99.90;14.70;101305.00;;;;5031603;28;20289;-79
2022/10/25 08:05:35;;;;;;;0.40;0.40;;;14.20;99.90;15.00;101313.00;;;;5034175;28;20193;-74
2022/10/25 08:08:06;;;;;;;1.50;1.50;;;14.20;99.90;14.80;101316.00;;;;5035578;28;20175;-74
2022/10/25 08:10:35;;;;;;;3.00;0.90;;;14.10;99.90;14.50;101312.00;;;;5018104;28;20238;-74
2022/10/25 08:13:04;;;;;;;0.30;0.30;;;14.00;99.90;15.20;101319.00;;;;5017338;28;20203;-73
2022/10/25 08:15:30;;;;;;;0.40;0.40;;;14.20;99.90;14.80;101305.00;;;;5034445;28;20176;-73
2022/10/25 08:18:03;;;;;;;0.93;0.93;;;14.20;99.90;15.00;101324.00;;;;5035432;28;20228;-73
2022/10/25 08:20:33;;;;;;;0.30;0.30;;;14.20;99.90;15.30;101327.00;;;;5017996;28;20180;-73
2022/10/25 08:23:07;;;;;;;1.17;0.93;;;14.40;99.90;15.40;101324.00;;;;5034026;28;20546;-73
2022/10/25 08:25:35;;;;;;;0.30;0.30;;;14.60;99.90;15.00;101322.00;;;;5035037;28;20624;-75
2022/10/25 08:28:09;;;;;;;3.10;0.50;;;14.60;99.90;15.80;101316.00;;;;5033674;28;20186;-74
2022/10/25 08:30:35;;;;;;;0.30;0.30;;;14.90;99.90;15.70;101309.00;;;;5032871;28;20228;-74
2022/10/25 08:33:06;;;;;;;0.30;0.30;;;15.00;99.90;16.10;101311.00;;;;5034890;28;20213;-74
2022/10/25 08:35:38;;;;;;;0.30;0.30;;;15.20;99.90;16.40;101322.00;;;;5031960;28;20214;-74
2022/10/25 08:38:09;;;;;;;1.23;1.13;;;15.40;99.90;16.30;101271.00;;;;5033828;28;20178;-74
2022/10/25 08:40:50;;;;;;;0.30;0.30;;;15.60;99.90;16.90;101321.00;;;;5035193;28;20179;-74
2022/10/25 08:43:24;;;;;;;0.30;0.30;;;15.90;99.90;16.80;101320.00;;;;5033348;28;20193;-70
2022/10/25 08:45:57;;;;;;;0.20;0.20;;;16.10;99.90;16.90;101314.00;;;;5033335;28;20186;-73
2022/10/25 08:48:48;;;;;;;0.30;0.30;;;16.00;99.90;18.50;101331.00;;;;5032641;28;20703;-74
2022/10/25 08:51:24;;;;;;;0.57;0.57;;;16.90;99.90;18.00;101338.00;;;;5016227;28;20191;-77
2022/10/25 08:53:53;;;;;;;0.33;0.33;;;17.20;99.90;17.00;101327.00;;;;5033546;28;20273;-81
2022/10/25 08:56:23;;;;;;;4.77;1.43;;;16.90;99.90;17.10;101295.00;;;;5033484;28;20269;-72
2022/10/25 08:59:00;;;;;;;0.20;0.20;;;16.70;99.90;16.70;101342.00;;;;5014169;28;20203;-72
2022/10/25 09:01:35;;;;;;;0.43;0.43;;;16.30;99.90;18.00;101344.00;;;;5012591;28;20554;-72
2022/10/25 09:04:01;;;;;;;0.43;0.43;;;16.80;99.90;17.10;101342.00;;;;5031156;28;20598;-72
2022/10/25 09:06:41;;;;;;;0.20;0.20;;;16.80;99.90;17.40;101339.00;;;;5027863;28;20271;-72
2022/10/25 09:09:19;;;;;;;0.23;0.23;;;16.60;99.90;17.70;101350.00;;;;5033934;28;20217;-72
2022/10/25 09:12:10;;;;;;;0.30;0.30;;;17.00;99.90;18.50;101359.00;;;;5015680;28;20289;-72
2022/10/25 09:14:52;;;;;;;5.33;1.60;;;17.40;99.90;18.30;101358.00;;;;5033052;28;20189;-72
2022/10/25 09:17:26;;;;;;;0.30;0.30;;;17.60;99.90;17.30;101356.00;;;;5032176;28;20269;-73
2022/10/25 09:20:04;;;;;;;0.40;0.40;;;17.00;99.90;18.00;101365.00;;;;5033044;28;20180;-71
2022/10/25 09:22:42;;;;;;;0.63;0.47;;;16.90;99.90;18.00;101370.00;;;;5033607;28;20186;-71
2022/10/25 09:25:48;;;;;;;0.20;0.20;;;16.90;99.90;16.80;101317.00;;;;5015948;28;20189;-71
2022/10/25 09:28:47;;;;;;;0.87;0.80;;;16.30;99.90;16.80;101340.00;;;;5033099;28;20179;-72
2022/10/25 09:31:20;;;;;;;4.13;0.60;;;16.40;99.90;17.70;101374.00;;;;5033407;28;20293;-71
2022/10/25 09:33:47;;;;;;;0.50;0.50;;;16.70;99.90;18.70;101376.00;;;;5032678;28;20549;-72
2022/10/25 09:36:14;;;;;;;0.93;0.93;;;17.20;99.90;17.70;101377.00;;;;5032539;28;20280;-72
2022/10/25 09:38:52;;;;;;;0.20;0.20;;;17.00;99.90;17.40;101376.00;;;;5016057;28;20178;-71
2022/10/25 09:41:38;;;;;;;0.40;0.40;;;16.50;99.90;16.80;101378.00;;;;5032598;28;20770;-72
2022/10/25 09:44:13;;;;;;;4.53;0.40;;;16.20;99.90;16.30;101369.00;;;;5032802;28;20168;-72
2022/10/25 09:47:15;;;;;;;0.20;0.20;;;16.00;99.90;16.60;101381.00;;;;5033627;28;20644;-72
2022/10/25 09:50:08;;;;;;;0.30;0.30;;;15.90;99.90;16.70;101381.00;;;;5004534;28;20192;-71
2022/10/25 09:52:58;;;;;;;0.20;0.20;;;16.00;99.90;16.70;101372.00;;;;5015886;28;20215;-72
2022/10/25 09:55:32;;;;;;;0.20;0.20;;;15.90;99.90;17.60;101377.00;;;;5032090;28;20238;-72
2022/10/25 09:58:01;;;;;;;1.90;0.60;;;16.30;99.90;17.10;101344.00;;;;5016134;28;20551;-71
2022/10/25 10:00:36;;;;;;;0.20;0.20;;;16.40;99.90;18.10;101369.00;;;;5032817;28;20227;-71
2022/10/25 10:03:02;;;;;;;0.30;0.30;;;16.70;99.90;18.10;101380.00;;;;5015492;28;20240;-71
2022/10/25 10:05:32;;;;;;;0.20;0.20;;;17.10;99.90;17.30;101373.00;;;;5033190;28;20219;-71
2022/10/25 10:08:03;;;;;;;0.93;0.93;;;17.00;99.90;17.80;101381.00;;;;5033468;28;20827;-71
2022/10/25 10:10:33;;;;;;;0.53;0.53;;;16.90;99.90;18.50;101392.00;;;;5033410;28;20209;-76
2022/10/25 10:13:51;;;;;;;1.43;0.63;;;17.30;99.90;18.20;101393.00;;;;5032243;28;20645;-74
2022/10/25 10:16:25;;;;;;;0.20;0.20;;;17.50;99.90;19.30;101394.00;;;;4980792;28;20739;-74
2022/10/25 10:19:12;;;;;;;0.20;0.20;;;17.90;99.90;18.30;101384.00;;;;5031538;28;20231;-74
2022/10/25 10:34:25;;;;;;;0.20;0.20;;;17.00;99.90;17.40;101386.00;;;;5087914;27;21141;-75
2022/10/25 10:37:42;;;;;;;0.20;0.20;;;17.10;99.90;19.00;101370.00;;;;5080038;28;20223;-75
2022/10/25 10:40:34;;;;;;;0.30;0.30;;;17.60;99.90;19.50;101364.00;;;;5085851;28;20211;-75
2022/10/25 10:43:50;;;;;;;0.50;0.50;;;18.30;99.90;20.30;101401.00;;;;5068954;28;20201;-75
2022/10/25 10:46:59;;;;;;;0.10;0.10;;;18.70;99.90;20.40;101408.00;;;;5088370;28;20690;-75
2022/10/25 10:49:48;;;;;;;0.10;0.10;;;18.90;99.90;20.30;101416.00;;;;5068243;28;20193;-75
2022/10/25 10:52:38;;;;;;;0.10;0.10;;;19.40;99.90;20.00;101410.00;;;;5052003;28;20577;-74
2022/10/25 10:55:41;;;;;;;0.73;0.73;;;19.20;99.90;18.50;101388.00;;;;5068629;28;20197;-74
2022/10/25 10:58:44;;;;;;;0.10;0.10;;;18.60;99.90;18.50;101392.00;;;;5086534;28;20636;-74
2022/10/25 11:02:11;;;;;;;0.20;0.20;;;17.90;99.90;18.30;101385.00;;;;5063778;28;20208;-74
2022/10/25 11:05:58;;;;;;;0.20;0.20;;;17.70;99.90;18.70;101380.00;;;;5081594;28;20228;-74
2022/10/25 11:09:18;;;;;;;0.10;0.10;;;17.90;99.90;18.60;101383.00;;;;5059514;28;20220;-74
2022/10/25 11:12:19;;;;;;;0.10;0.10;;;17.70;99.90;19.60;101389.00;;;;5065477;28;20227;-75
2022/10/25 11:15:49;;;;;;;0.10;0.10;;;18.50;99.90;20.80;101414.00;;;;5080794;28;20196;-75
2022/10/25 11:19:20;;;;;;;0.10;0.10;;;19.10;99.90;20.20;101417.00;;;;5007616;28;20191;-75
2022/10/25 11:22:47;;;;;;;0.10;0.10;;;19.40;99.90;18.80;101409.00;;;;4991087;28;20227;-75
2022/10/25 11:25:56;;;;;;;0.63;0.63;;;19.10;99.90;20.20;101412.00;;;;4991602;28;20282;-74
2022/10/25 11:29:29;;;;;;;1.08;0.82;;;18.80;99.90;19.50;101416.00;;;;5010988;28;20203;-74
2022/10/25 11:32:48;;;;;;;0.10;0.10;;;18.80;99.90;18.80;101410.00;;;;5006094;28;20240;-75
2022/10/25 11:35:49;;;;;;;0.63;0.45;;;18.50;99.90;20.50;101428.00;;;;5042008;28;20657;-75
2022/10/25 11:38:54;;;;;;;0.55;0.55;;;18.90;99.90;21.60;101405.00;;;;5067793;28;20280;-75
2022/10/25 11:41:38;;;;;;;0.10;0.10;;;19.90;99.90;21.60;101452.00;;;;5051385;28;20182;-75
2022/10/25 11:44:45;;;;;;;0.10;0.10;;;19.90;99.90;21.40;101433.00;;;;5058430;28;20182;-75
2022/10/25 11:47:36;;;;;;;1.08;0.30;;;20.60;99.90;21.60;101472.00;;;;5056207;28;20200;-75
2022/10/25 11:50:53;;;;;;;0.10;0.10;;;20.30;99.90;20.60;101463.00;;;;5054155;28;20716;-75
2022/10/25 11:53:51;;;;;;;0.10;0.10;;;19.80;99.90;20.30;101439.00;;;;5024972;28;20293;-75
2022/10/25 11:56:47;;;;;;;0.73;0.57;;;19.10;99.90;19.20;101436.00;;;;5054763;28;20205;-75
2022/10/25 11:59:38;;;;;;;3.65;0.80;;;18.80;99.90;19.60;101406.00;;;;5055705;28;20182;-75
2022/10/25 12:02:48;;;;;;;0.10;0.10;;;18.50;99.90;21.40;101447.00;;;;5054333;28;20213;-75
2022/10/25 12:05:34;;;;;;;0.20;0.20;;;19.30;99.90;21.50;101464.00;;;;5055327;28;20600;-75
2022/10/25 12:08:22;;;;;;;0.10;0.10;;;19.60;99.90;20.00;101432.00;;;;5047855;28;20622;-75
2022/10/25 12:11:00;;;;;;;0.10;0.10;;;19.00;99.90;20.80;101436.00;;;;5053911;28;20190;-75
2022/10/25 12:13:49;;;;;;;0.60;0.60;;;19.20;99.90;17.80;101401.00;;;;5054140;28;20600;-75
2022/10/25 12:16:19;;;;;;;0.17;0.17;;;18.00;99.90;19.20;101383.00;;;;5037445;28;20186;-75
2022/10/25 12:19:14;;;;;;;0.10;0.10;;;18.00;99.90;19.50;101423.00;;;;5053658;28;20181;-70
2022/10/25 12:22:05;;;;;;;0.20;0.20;;;18.50;99.90;20.00;101427.00;;;;5054077;28;20263;-70
2022/10/25 12:24:48;;;;;;;0.20;0.20;;;19.00;99.90;19.80;101430.00;;;;5054047;28;20182;-70
2022/10/25 12:27:18;;;;;;;0.10;0.10;;;19.00;99.90;19.30;101431.00;;;;5053763;28;20605;-71
2022/10/25 12:29:54;;;;;;;0.30;0.30;;;18.80;99.90;19.70;101418.00;;;;5037503;28;20189;-71
2022/10/25 12:32:40;;;;;;;0.20;0.20;;;18.80;99.90;20.10;101423.00;;;;5036959;28;20225;-70
2022/10/25 12:35:35;;;;;;;0.20;0.20;;;19.00;99.90;20.60;101426.00;;;;5055030;28;20253;-71
2022/10/25 12:38:34;;;;;;;0.30;0.30;;;19.40;99.90;19.80;101421.00;;;;5063467;28;20563;-72
2022/10/25 12:41:26;;;;;;;0.40;0.40;;;19.10;99.90;20.60;101428.00;;;;5054228;28;20190;-72
2022/10/25 12:44:10;;;;;;;0.28;0.28;;;19.30;99.90;20.70;101456.00;;;;5053586;28;20174;-72
2022/10/25 12:46:51;;;;;;;0.30;0.30;;;19.90;99.90;20.10;101428.00;;;;5054990;28;20178;-72
2022/10/25 12:49:40;;;;;;;0.45;0.45;;;19.40;99.90;20.30;101425.00;;;;5054041;28;20184;-72
2022/10/25 12:53:05;;;;;;;0.10;0.10;;;19.30;99.90;21.90;101461.00;;;;5054774;28;20186;-72